createdAt,value
2022-07-29T00:00:30.342Z,0.00
2022-07-29T00:01:30.358Z,0.00
2022-07-29T00:02:30.366Z,0.00
2022-07-29T00:03:30.339Z,0.00
2022-07-29T00:04:30.420Z,0.00
2022-07-29T00:05:30.310Z,0.00
2022-07-29T00:06:30.264Z,0.00
2022-07-29T00:07:30.266Z,0.00
2022-07-29T00:08:30.234Z,0.00
2022-07-29T00:09:30.251Z,0.00
2022-07-29T00:10:30.271Z,0.00
2022-07-29T00:11:30.227Z,0.00
2022-07-29T00:12:30.180Z,0.00
2022-07-29T00:13:32.093Z,0.00
2022-07-29T00:14:30.180Z,0.00
2022-07-29T00:15:30.173Z,0.00
2022-07-29T00:16:30.220Z,0.00
2022-07-29T00:17:30.143Z,0.00
2022-07-29T00:18:30.108Z,0.00
2022-07-29T00:19:30.111Z,0.00
2022-07-29T00:20:30.090Z,0.00
2022-07-29T00:21:30.074Z,0.00
2022-07-29T00:22:30.087Z,0.00
2022-07-29T00:23:32.635Z,0.00
2022-07-29T00:24:30.025Z,0.00
2022-07-29T00:25:30.020Z,0.00
2022-07-29T00:26:30.012Z,0.00
2022-07-29T00:27:29.997Z,0.00
2022-07-29T00:28:30.002Z,0.00
2022-07-29T00:29:34.686Z,0.00
2022-07-29T00:30:29.955Z,0.00
2022-07-29T00:31:29.999Z,0.00
2022-07-29T00:32:29.915Z,0.00
2022-07-29T00:33:29.925Z,0.00
2022-07-29T00:34:29.921Z,0.00
2022-07-29T00:35:29.890Z,0.00
2022-07-29T00:36:29.874Z,0.00
2022-07-29T00:37:29.880Z,0.00
2022-07-29T00:38:29.843Z,0.00
2022-07-29T00:39:29.836Z,0.00
2022-07-29T00:40:29.854Z,0.00
2022-07-29T00:41:29.814Z,0.00
2022-07-29T00:42:29.798Z,0.00
2022-07-29T00:43:29.780Z,0.00
2022-07-29T00:44:29.757Z,0.00
2022-07-29T00:45:29.760Z,0.00
2022-07-29T00:46:29.797Z,0.00
2022-07-29T00:47:29.735Z,0.00
2022-07-29T00:48:29.716Z,0.00
2022-07-29T00:49:29.718Z,0.00
2022-07-29T00:50:29.690Z,0.00
2022-07-29T00:51:29.676Z,0.00
2022-07-29T00:52:29.683Z,0.00
2022-07-29T00:53:29.653Z,0.00
2022-07-29T00:54:29.627Z,0.00
2022-07-29T00:55:29.623Z,0.00
2022-07-29T00:56:29.624Z,0.00
2022-07-29T00:57:29.625Z,0.00
2022-07-29T00:58:29.626Z,0.00
2022-07-29T00:59:34.697Z,0.00
2022-07-29T01:00:29.653Z,0.00
2022-07-29T01:01:29.664Z,0.00
2022-07-29T01:02:29.596Z,0.00
2022-07-29T01:03:29.517Z,0.00
2022-07-29T01:04:29.520Z,0.00
2022-07-29T01:05:48.044Z,0.00
2022-07-29T01:06:29.481Z,0.00
2022-07-29T01:07:29.465Z,0.00
2022-07-29T01:08:29.445Z,0.00
2022-07-29T01:09:42.831Z,0.00
2022-07-29T01:10:29.459Z,0.00
2022-07-29T01:11:29.423Z,0.00
2022-07-29T01:12:29.407Z,0.00
2022-07-29T01:13:29.393Z,0.00
2022-07-29T01:14:29.361Z,0.00
2022-07-29T01:15:29.358Z,0.00
2022-07-29T01:16:29.446Z,0.00
2022-07-29T01:17:35.351Z,0.00
2022-07-29T01:18:29.316Z,0.00
2022-07-29T01:19:29.311Z,0.00
2022-07-29T01:20:31.655Z,0.00
2022-07-29T01:21:29.285Z,0.00
2022-07-29T01:22:29.286Z,0.00
2022-07-29T01:23:29.280Z,0.00
2022-07-29T01:24:29.224Z,0.00
2022-07-29T01:25:29.230Z,0.00
2022-07-29T01:26:29.214Z,0.00
2022-07-29T01:27:29.195Z,0.00
2022-07-29T01:28:29.201Z,0.00
2022-07-29T01:29:29.788Z,0.00
2022-07-29T01:30:29.159Z,0.00
2022-07-29T01:31:29.271Z,0.00
2022-07-29T01:32:29.597Z,0.00
2022-07-29T01:33:29.114Z,0.00
2022-07-29T01:34:29.132Z,0.00
2022-07-29T01:35:29.107Z,0.00
2022-07-29T01:36:29.064Z,0.00
2022-07-29T01:37:29.076Z,0.00
2022-07-29T01:38:29.042Z,0.00
2022-07-29T01:39:29.180Z,0.00
2022-07-29T01:40:29.043Z,0.00
2022-07-29T01:41:29.022Z,0.00
2022-07-29T01:42:28.986Z,0.00
2022-07-29T01:43:28.990Z,0.00
2022-07-29T01:44:28.962Z,0.00
2022-07-29T01:45:28.957Z,0.00
2022-07-29T01:46:29.028Z,0.00
2022-07-29T01:47:28.950Z,0.00
2022-07-29T01:48:28.903Z,0.00
2022-07-29T01:49:28.975Z,0.00
2022-07-29T01:50:28.895Z,0.00
2022-07-29T01:51:28.877Z,0.00
2022-07-29T01:52:28.886Z,0.00
2022-07-29T01:53:28.864Z,0.00
2022-07-29T01:54:28.836Z,0.00
2022-07-29T01:55:28.825Z,0.00
2022-07-29T01:56:28.803Z,0.00
2022-07-29T01:57:28.795Z,0.00
2022-07-29T01:58:28.825Z,0.00
2022-07-29T01:59:28.759Z,0.00
2022-07-29T02:00:28.755Z,0.00
2022-07-29T02:01:28.812Z,0.00
2022-07-29T02:02:28.738Z,0.00
2022-07-29T02:03:28.712Z,0.00
2022-07-29T02:04:29.929Z,0.00
2022-07-29T02:05:28.741Z,0.00
2022-07-29T02:06:28.682Z,0.00
2022-07-29T02:07:28.667Z,0.00
2022-07-29T02:08:28.673Z,0.00
2022-07-29T02:09:28.687Z,0.00
2022-07-29T02:10:28.656Z,0.00
2022-07-29T02:11:28.602Z,0.00
2022-07-29T02:12:28.607Z,0.00
2022-07-29T02:13:28.574Z,0.00
2022-07-29T02:14:28.581Z,0.00
2022-07-29T02:15:28.544Z,0.00
2022-07-29T02:16:28.608Z,0.00
2022-07-29T02:17:28.532Z,0.00
2022-07-29T02:18:28.524Z,0.00
2022-07-29T02:19:28.491Z,0.00
2022-07-29T02:20:28.492Z,0.00
2022-07-29T02:21:28.461Z,0.00
2022-07-29T02:22:28.502Z,0.00
2022-07-29T02:23:28.440Z,0.00
2022-07-29T02:24:28.447Z,0.00
2022-07-29T02:25:36.960Z,0.00
2022-07-29T02:26:28.422Z,0.00
2022-07-29T02:27:28.396Z,0.00
2022-07-29T02:28:28.419Z,0.00
2022-07-29T02:29:28.375Z,0.00
2022-07-29T02:30:28.381Z,0.00
2022-07-29T02:31:28.358Z,0.00
2022-07-29T02:32:28.334Z,0.00
2022-07-29T02:33:28.317Z,0.00
2022-07-29T02:34:28.348Z,0.00
2022-07-29T02:35:28.282Z,0.00
2022-07-29T02:36:28.320Z,0.00
2022-07-29T02:37:28.250Z,0.00
2022-07-29T02:38:28.254Z,0.00
2022-07-29T02:39:28.226Z,0.00
2022-07-29T02:40:28.270Z,0.00
2022-07-29T02:41:28.225Z,0.00
2022-07-29T02:42:28.200Z,0.00
2022-07-29T02:43:28.168Z,0.00
2022-07-29T02:44:34.169Z,0.00
2022-07-29T02:45:28.152Z,0.00
2022-07-29T02:46:29.604Z,0.00
2022-07-29T02:47:28.126Z,0.00
2022-07-29T02:48:28.119Z,0.00
2022-07-29T02:49:28.221Z,0.00
2022-07-29T02:50:28.101Z,0.00
2022-07-29T02:51:43.538Z,0.00
2022-07-29T02:52:28.094Z,0.00
2022-07-29T02:53:28.047Z,0.00
2022-07-29T02:54:28.034Z,0.00
2022-07-29T02:55:28.036Z,0.00
2022-07-29T02:56:28.010Z,0.00
2022-07-29T02:57:27.985Z,0.00
2022-07-29T02:58:28.012Z,0.00
2022-07-29T02:59:27.980Z,0.00
2022-07-29T03:00:27.960Z,0.00
2022-07-29T03:01:27.947Z,0.00
2022-07-29T03:02:27.928Z,0.00
2022-07-29T03:03:27.906Z,0.00
2022-07-29T03:04:27.980Z,0.00
2022-07-29T03:05:27.887Z,0.00
2022-07-29T03:06:30.990Z,0.00
2022-07-29T03:07:27.868Z,0.00
2022-07-29T03:08:27.850Z,0.00
2022-07-29T03:09:27.840Z,0.00
2022-07-29T03:10:27.877Z,0.00
2022-07-29T03:11:46.062Z,0.00
2022-07-29T03:12:27.799Z,0.00
2022-07-29T03:13:27.776Z,0.00
2022-07-29T03:14:27.768Z,0.00
2022-07-29T03:15:27.763Z,0.00
2022-07-29T03:16:27.822Z,0.00
2022-07-29T03:17:27.714Z,0.00
2022-07-29T03:18:27.714Z,0.00
2022-07-29T03:19:27.692Z,0.00
2022-07-29T03:20:27.688Z,0.00
2022-07-29T03:21:27.626Z,1.00
2022-07-29T03:22:27.646Z,2.00
2022-07-29T03:23:27.583Z,1.00
2022-07-29T03:24:27.588Z,1.00
2022-07-29T03:25:27.556Z,1.00
2022-07-29T03:26:27.553Z,2.00
2022-07-29T03:27:27.532Z,2.00
2022-07-29T03:28:27.566Z,2.00
2022-07-29T03:29:33.743Z,3.00
2022-07-29T03:30:27.525Z,3.00
2022-07-29T03:31:27.521Z,3.00
2022-07-29T03:32:27.490Z,4.00
2022-07-29T03:33:27.474Z,5.00
2022-07-29T03:34:27.480Z,9.00
2022-07-29T03:35:27.421Z,5.00
2022-07-29T03:36:27.432Z,9.00
2022-07-29T03:37:27.410Z,10.00
2022-07-29T03:38:27.405Z,9.00
2022-07-29T03:39:27.371Z,14.00
2022-07-29T03:40:27.403Z,16.00
2022-07-29T03:41:27.343Z,22.00
2022-07-29T03:42:32.391Z,22.00
2022-07-29T03:43:27.319Z,25.00
2022-07-29T03:44:27.322Z,30.00
2022-07-29T03:45:27.290Z,35.00
2022-07-29T03:46:27.433Z,38.00
2022-07-29T03:47:49.525Z,42.00
2022-07-29T03:48:27.279Z,52.00
2022-07-29T03:49:27.288Z,58.00
2022-07-29T03:50:27.249Z,60.00
2022-07-29T03:51:33.079Z,73.00
2022-07-29T03:52:27.253Z,79.00
2022-07-29T03:53:27.179Z,85.00
2022-07-29T03:54:27.186Z,97.00
2022-07-29T03:55:27.169Z,112.00
2022-07-29T03:56:27.157Z,123.00
2022-07-29T03:57:27.132Z,131.00
2022-07-29T03:58:27.160Z,143.00
2022-07-29T03:59:27.092Z,161.00
2022-07-29T04:00:27.111Z,180.00
2022-07-29T04:01:27.131Z,194.00
2022-07-29T04:02:30.577Z,208.00
2022-07-29T04:03:27.099Z,225.00
2022-07-29T04:04:27.390Z,248.00
2022-07-29T04:05:27.029Z,262.00
2022-07-29T04:06:27.039Z,280.00
2022-07-29T04:07:26.996Z,297.00
2022-07-29T04:08:27.008Z,317.00
2022-07-29T04:09:26.972Z,342.00
2022-07-29T04:10:31.697Z,358.00
2022-07-29T04:11:26.959Z,386.00
2022-07-29T04:12:26.944Z,411.00
2022-07-29T04:13:26.919Z,430.00
2022-07-29T04:14:26.954Z,455.00
2022-07-29T04:15:26.887Z,480.00
2022-07-29T04:16:26.985Z,503.00
2022-07-29T04:17:26.857Z,531.00
2022-07-29T04:18:26.898Z,555.00
2022-07-29T04:19:26.835Z,577.00
2022-07-29T04:20:26.876Z,612.00
2022-07-29T04:21:26.823Z,645.00
2022-07-29T04:22:26.840Z,671.00
2022-07-29T04:23:26.772Z,698.00
2022-07-29T04:24:26.825Z,724.00
2022-07-29T04:25:26.771Z,749.00
2022-07-29T04:26:26.785Z,776.00
2022-07-29T04:27:26.719Z,799.00
2022-07-29T04:28:26.782Z,826.00
2022-07-29T04:29:26.731Z,857.00
2022-07-29T04:30:26.732Z,883.00
2022-07-29T04:31:26.728Z,912.00
2022-07-29T04:32:26.678Z,942.00
2022-07-29T04:33:26.644Z,966.00
2022-07-29T04:34:27.996Z,999.00
2022-07-29T04:35:26.619Z,1032.00
2022-07-29T04:36:29.050Z,1068.00
2022-07-29T04:37:26.586Z,1113.00
2022-07-29T04:38:26.597Z,1131.00
2022-07-29T04:39:29.494Z,1156.00
2022-07-29T04:40:26.604Z,1205.00
2022-07-29T04:41:32.686Z,1248.00
2022-07-29T04:42:27.756Z,1284.00
2022-07-29T04:43:26.513Z,1329.00
2022-07-29T04:44:28.810Z,1339.00
2022-07-29T04:45:26.509Z,1404.00
2022-07-29T04:46:26.607Z,1468.00
2022-07-29T04:47:26.454Z,1502.00
2022-07-29T04:48:28.635Z,1554.00
2022-07-29T04:49:26.485Z,1616.00
2022-07-29T04:50:26.434Z,1685.00
2022-07-29T04:51:26.409Z,1739.00
2022-07-29T04:52:26.446Z,1797.00
2022-07-29T04:53:26.377Z,1857.00
2022-07-29T04:54:26.397Z,1924.00
2022-07-29T04:55:26.400Z,2000.00
2022-07-29T04:56:26.355Z,2057.00
2022-07-29T04:57:26.332Z,2099.00
2022-07-29T04:58:26.385Z,2191.00
2022-07-29T04:59:26.322Z,2238.00
2022-07-29T05:00:28.121Z,2329.00
2022-07-29T05:01:26.396Z,2426.00
2022-07-29T05:02:26.331Z,2490.00
2022-07-29T05:03:26.254Z,2538.00
2022-07-29T05:04:26.279Z,2564.00
2022-07-29T05:05:26.234Z,2589.00
2022-07-29T05:06:26.220Z,2611.00
2022-07-29T05:07:26.202Z,2656.00
2022-07-29T05:08:26.197Z,2672.00
2022-07-29T05:09:26.160Z,2687.00
2022-07-29T05:10:26.210Z,2683.00
2022-07-29T05:11:30.220Z,2635.00
2022-07-29T05:12:26.164Z,2613.00
2022-07-29T05:13:26.112Z,2657.00
2022-07-29T05:14:26.137Z,2705.00
2022-07-29T05:15:26.215Z,2713.00
2022-07-29T05:16:26.209Z,2704.00
2022-07-29T05:17:26.080Z,2663.00
2022-07-29T05:18:26.395Z,2679.00
2022-07-29T05:19:26.037Z,2675.00
2022-07-29T05:20:26.065Z,2661.00
2022-07-29T05:21:26.029Z,2653.00
2022-07-29T05:22:26.064Z,2715.00
2022-07-29T05:23:25.995Z,2642.00
2022-07-29T05:24:25.979Z,2822.00
2022-07-29T05:25:42.946Z,2827.00
2022-07-29T05:26:25.951Z,2752.00
2022-07-29T05:27:25.923Z,2828.00
2022-07-29T05:28:25.986Z,2915.00
2022-07-29T05:29:43.664Z,2956.00
2022-07-29T05:30:25.939Z,3115.00
2022-07-29T05:31:25.918Z,2975.00
2022-07-29T05:32:25.864Z,2964.00
2022-07-29T05:33:35.295Z,3295.00
2022-07-29T05:34:25.889Z,3199.00
2022-07-29T05:35:25.854Z,3570.00
2022-07-29T05:36:25.816Z,3300.00
2022-07-29T05:37:25.789Z,3230.00
2022-07-29T05:38:25.814Z,3673.00
2022-07-29T05:39:36.550Z,3447.00
2022-07-29T05:40:25.815Z,3407.00
2022-07-29T05:41:25.742Z,3830.00
2022-07-29T05:42:25.736Z,3602.00
2022-07-29T05:43:25.715Z,3665.00
2022-07-29T05:44:25.714Z,3475.00
2022-07-29T05:45:25.684Z,3708.00
2022-07-29T05:46:25.773Z,3344.00
2022-07-29T05:47:25.682Z,3829.00
2022-07-29T05:48:25.699Z,3233.00
2022-07-29T05:49:27.458Z,3608.00
2022-07-29T05:50:25.655Z,2917.00
2022-07-29T05:51:25.601Z,3440.00
2022-07-29T05:52:25.633Z,3577.00
2022-07-29T05:53:25.573Z,3670.00
2022-07-29T05:54:25.580Z,3795.00
2022-07-29T05:55:25.554Z,3547.00
2022-07-29T05:56:25.561Z,3634.00
2022-07-29T05:57:25.524Z,4197.00
2022-07-29T05:58:25.557Z,3394.00
2022-07-29T05:59:30.139Z,3627.00
2022-07-29T06:00:25.502Z,3976.00
2022-07-29T06:01:25.495Z,4338.00
2022-07-29T06:02:25.499Z,3995.00
2022-07-29T06:03:25.443Z,3902.00
2022-07-29T06:04:25.641Z,4221.00
2022-07-29T06:05:25.418Z,4361.00
2022-07-29T06:06:25.419Z,4417.00
2022-07-29T06:07:25.394Z,4509.00
2022-07-29T06:08:25.420Z,4528.00
2022-07-29T06:09:25.363Z,4593.00
2022-07-29T06:10:26.193Z,4647.00
2022-07-29T06:11:25.342Z,4646.00
2022-07-29T06:12:25.338Z,4723.00
2022-07-29T06:13:25.349Z,4812.00
2022-07-29T06:14:25.329Z,4923.00
2022-07-29T06:15:25.293Z,4873.00
2022-07-29T06:16:30.201Z,5030.00
2022-07-29T06:17:25.278Z,5094.00
2022-07-29T06:18:25.255Z,5378.00
2022-07-29T06:19:25.267Z,4493.00
2022-07-29T06:20:27.241Z,4616.00
2022-07-29T06:21:25.221Z,4825.00
2022-07-29T06:22:25.274Z,5230.00
2022-07-29T06:23:25.232Z,5615.00
2022-07-29T06:24:25.171Z,5147.00
2022-07-29T06:25:25.176Z,5105.00
2022-07-29T06:26:26.351Z,4224.00
2022-07-29T06:27:25.147Z,5650.00
2022-07-29T06:28:25.178Z,4132.00
2022-07-29T06:29:25.120Z,5860.00
2022-07-29T06:30:25.149Z,4241.00
2022-07-29T06:31:25.186Z,5678.00
2022-07-29T06:32:27.364Z,5325.00
2022-07-29T06:33:25.071Z,5583.00
2022-07-29T06:34:25.063Z,5528.00
2022-07-29T06:35:39.028Z,5687.00
2022-07-29T06:36:25.086Z,5676.00
2022-07-29T06:37:25.026Z,5709.00
2022-07-29T06:38:30.703Z,5356.00
2022-07-29T06:39:24.982Z,5776.00
2022-07-29T06:40:24.976Z,6397.00
2022-07-29T06:41:24.978Z,4072.00
2022-07-29T06:42:24.938Z,3194.00
2022-07-29T06:43:24.924Z,5327.00
2022-07-29T06:44:24.906Z,5216.00
2022-07-29T06:45:24.895Z,5014.00
2022-07-29T06:46:24.988Z,5459.00
2022-07-29T06:47:24.872Z,5554.00
2022-07-29T06:48:24.853Z,5408.00
2022-07-29T06:49:24.892Z,7062.00
2022-07-29T06:50:24.878Z,5318.00
2022-07-29T06:51:24.818Z,4903.00
2022-07-29T06:52:24.830Z,1500.00
2022-07-29T06:53:24.792Z,6111.00
2022-07-29T06:54:24.768Z,5647.00
2022-07-29T06:55:25.467Z,6869.00
2022-07-29T06:56:24.781Z,2150.00
2022-07-29T06:57:24.748Z,5416.00
2022-07-29T06:58:24.744Z,6703.00
2022-07-29T06:59:33.470Z,4586.00
2022-07-29T07:00:24.821Z,5857.00
2022-07-29T07:01:24.721Z,4697.00
2022-07-29T07:02:24.712Z,6121.00
2022-07-29T07:03:24.655Z,2899.00
2022-07-29T07:04:24.690Z,4786.00
2022-07-29T07:05:24.831Z,6012.00
2022-07-29T07:06:24.615Z,5485.00
2022-07-29T07:07:24.617Z,6376.00
2022-07-29T07:08:24.642Z,5308.00
2022-07-29T07:09:24.601Z,5525.00
2022-07-29T07:10:24.708Z,5787.00
2022-07-29T07:11:24.557Z,5485.00
2022-07-29T07:12:24.909Z,5247.00
2022-07-29T07:13:24.536Z,5615.00
2022-07-29T07:14:24.615Z,5677.00
2022-07-29T07:15:39.234Z,6820.00
2022-07-29T07:16:24.560Z,4415.00
2022-07-29T07:17:24.478Z,5714.00
2022-07-29T07:18:24.503Z,6647.00
2022-07-29T07:19:24.454Z,6872.00
2022-07-29T07:20:24.424Z,4040.00
2022-07-29T07:21:24.434Z,5417.00
2022-07-29T07:22:24.476Z,6250.00
2022-07-29T07:23:24.410Z,6344.00
2022-07-29T07:24:24.375Z,6587.00
2022-07-29T07:25:24.447Z,6619.00
2022-07-29T07:26:24.339Z,6222.00
2022-07-29T07:27:24.348Z,6250.00
2022-07-29T07:28:24.615Z,6703.00
2022-07-29T07:29:24.350Z,6544.00
2022-07-29T07:30:24.291Z,6642.00
2022-07-29T07:31:24.343Z,6537.00
2022-07-29T07:32:24.336Z,6936.00
2022-07-29T07:33:24.268Z,6305.00
2022-07-29T07:34:28.341Z,8106.00
2022-07-29T07:35:24.274Z,5278.00
2022-07-29T07:36:24.313Z,5528.00
2022-07-29T07:37:24.219Z,5917.00
2022-07-29T07:38:24.200Z,5825.00
2022-07-29T07:39:24.239Z,6790.00
2022-07-29T07:40:24.194Z,6456.00
2022-07-29T07:41:24.158Z,6435.00
2022-07-29T07:42:24.181Z,6501.00
2022-07-29T07:43:24.145Z,6534.00
2022-07-29T07:44:24.509Z,6634.00
2022-07-29T07:45:24.111Z,6562.00
2022-07-29T07:46:24.245Z,6595.00
2022-07-29T07:47:24.083Z,6657.00
2022-07-29T07:48:24.068Z,6673.00
2022-07-29T07:49:24.120Z,6793.00
2022-07-29T07:50:24.027Z,6903.00
2022-07-29T07:51:24.057Z,7018.00
2022-07-29T07:52:24.260Z,7014.00
2022-07-29T07:53:24.010Z,7048.00
2022-07-29T07:54:23.978Z,7148.00
2022-07-29T07:55:23.989Z,7245.00
2022-07-29T07:56:23.962Z,7380.00
2022-07-29T07:57:23.953Z,7447.00
2022-07-29T07:58:23.994Z,7599.00
2022-07-29T07:59:23.932Z,7705.00
2022-07-29T08:00:24.021Z,7783.00
2022-07-29T08:01:24.038Z,8149.00
2022-07-29T08:02:23.927Z,7778.00
2022-07-29T08:03:23.892Z,8041.00
2022-07-29T08:04:28.090Z,8135.00
2022-07-29T08:05:23.881Z,7910.00
2022-07-29T08:06:23.822Z,8562.00
2022-07-29T08:07:23.816Z,7441.00
2022-07-29T08:08:23.808Z,7275.00
2022-07-29T08:09:30.990Z,7584.00
2022-07-29T08:10:23.819Z,7879.00
2022-07-29T08:11:23.819Z,7683.00
2022-07-29T08:12:23.743Z,7162.00
2022-07-29T08:13:23.746Z,7461.00
2022-07-29T08:14:23.738Z,7488.00
2022-07-29T08:15:23.727Z,7587.00
2022-07-29T08:16:23.779Z,7232.00
2022-07-29T08:17:23.686Z,7364.00
2022-07-29T08:18:23.686Z,7704.00
2022-07-29T08:19:23.665Z,7264.00
2022-07-29T08:20:23.667Z,7303.00
2022-07-29T08:21:23.718Z,7255.00
2022-07-29T08:22:23.647Z,9340.00
2022-07-29T08:23:23.630Z,6659.00
2022-07-29T08:24:23.605Z,5299.00
2022-07-29T08:25:23.583Z,8096.00
2022-07-29T08:26:23.601Z,8183.00
2022-07-29T08:27:42.557Z,5025.00
2022-07-29T08:28:26.093Z,7528.00
2022-07-29T08:29:23.543Z,4150.00
2022-07-29T08:30:23.540Z,3637.00
2022-07-29T08:31:23.571Z,9300.00
2022-07-29T08:32:50.980Z,5754.00
2022-07-29T08:33:23.487Z,6421.00
2022-07-29T08:34:26.901Z,6496.00
2022-07-29T08:35:23.478Z,8329.00
2022-07-29T08:36:23.485Z,7228.00
2022-07-29T08:37:23.429Z,8116.00
2022-07-29T08:38:23.401Z,9785.00
2022-07-29T08:39:23.416Z,9565.00
2022-07-29T08:40:32.247Z,3755.00
2022-07-29T08:41:23.392Z,7088.00
2022-07-29T08:42:23.355Z,9479.00
2022-07-29T08:43:23.362Z,6617.00
2022-07-29T08:44:29.733Z,8293.00
2022-07-29T08:45:23.445Z,7926.00
2022-07-29T08:46:23.420Z,8340.00
2022-07-29T08:47:23.299Z,7091.00
2022-07-29T08:48:23.319Z,7403.00
2022-07-29T08:49:23.306Z,6957.00
2022-07-29T08:50:23.252Z,7153.00
2022-07-29T08:51:23.261Z,6900.00
2022-07-29T08:52:23.307Z,6565.00
2022-07-29T08:53:23.222Z,6738.00
2022-07-29T08:54:23.195Z,6583.00
2022-07-29T08:55:23.227Z,4236.00
2022-07-29T08:56:23.171Z,6738.00
2022-07-29T08:57:23.183Z,9890.00
2022-07-29T08:58:24.584Z,2645.00
2022-07-29T08:59:23.168Z,10110.00
2022-07-29T09:00:23.148Z,5081.00
2022-07-29T09:01:23.215Z,7524.00
2022-07-29T09:02:23.100Z,2168.00
2022-07-29T09:03:23.135Z,8681.00
2022-07-29T09:04:23.111Z,8648.00
2022-07-29T09:05:23.120Z,8659.00
2022-07-29T09:06:23.043Z,8666.00
2022-07-29T09:07:23.089Z,8499.00
2022-07-29T09:08:23.033Z,8655.00
2022-07-29T09:09:23.061Z,8934.00
2022-07-29T09:10:23.023Z,8289.00
2022-07-29T09:11:22.997Z,8461.00
2022-07-29T09:12:28.697Z,8524.00
2022-07-29T09:13:22.964Z,8693.00
2022-07-29T09:14:22.934Z,8513.00
2022-07-29T09:15:22.934Z,8453.00
2022-07-29T09:16:50.980Z,8539.00
2022-07-29T09:17:23.003Z,8574.00
2022-07-29T09:18:30.855Z,8626.00
2022-07-29T09:19:22.895Z,8672.00
2022-07-29T09:20:22.880Z,8588.00
2022-07-29T09:21:22.856Z,8709.00
2022-07-29T09:22:22.859Z,9945.00
2022-07-29T09:23:24.363Z,9872.00
2022-07-29T09:24:22.814Z,10399.00
2022-07-29T09:25:22.799Z,9868.00
2022-07-29T09:26:22.779Z,10309.00
2022-07-29T09:27:22.831Z,6833.00
2022-07-29T09:28:22.786Z,7578.00
2022-07-29T09:29:22.756Z,4558.00
2022-07-29T09:30:28.835Z,10948.00
2022-07-29T09:31:22.785Z,2648.00
2022-07-29T09:32:22.704Z,11597.00
2022-07-29T09:33:22.701Z,4320.00
2022-07-29T09:34:22.745Z,8112.00
2022-07-29T09:35:22.674Z,9577.00
2022-07-29T09:36:22.676Z,9614.00
2022-07-29T09:37:22.776Z,9095.00
2022-07-29T09:38:22.648Z,7127.00
2022-07-29T09:39:22.642Z,7074.00
2022-07-29T09:40:22.641Z,8109.00
2022-07-29T09:41:22.591Z,7338.00
2022-07-29T09:42:22.598Z,7309.00
2022-07-29T09:43:22.611Z,7935.00
2022-07-29T09:44:22.545Z,9694.00
2022-07-29T09:45:22.581Z,9562.00
2022-07-29T09:46:22.573Z,10291.00
2022-07-29T09:47:22.554Z,9643.00
2022-07-29T09:48:22.490Z,9095.00
2022-07-29T09:49:22.589Z,9850.00
2022-07-29T09:50:22.470Z,9766.00
2022-07-29T09:51:28.504Z,9195.00
2022-07-29T09:52:22.489Z,8649.00
2022-07-29T09:53:22.465Z,9325.00
2022-07-29T09:54:22.417Z,9707.00
2022-07-29T09:55:22.417Z,9081.00
2022-07-29T09:56:22.527Z,8791.00
2022-07-29T09:57:23.692Z,8956.00
2022-07-29T09:58:22.433Z,9146.00
2022-07-29T09:59:22.375Z,8953.00
2022-07-29T10:00:22.346Z,9247.00
2022-07-29T10:01:22.417Z,8960.00
2022-07-29T10:02:23.892Z,8981.00
2022-07-29T10:03:22.518Z,8952.00
2022-07-29T10:04:22.321Z,8708.00
2022-07-29T10:05:22.285Z,8625.00
2022-07-29T10:06:22.255Z,8116.00
2022-07-29T10:07:22.313Z,9144.00
2022-07-29T10:08:22.233Z,7998.00
2022-07-29T10:09:22.449Z,8214.00
2022-07-29T10:10:22.251Z,7669.00
2022-07-29T10:11:22.206Z,7928.00
2022-07-29T10:12:22.293Z,8000.00
2022-07-29T10:13:22.197Z,8440.00
2022-07-29T10:14:22.150Z,7851.00
2022-07-29T10:15:22.205Z,8379.00
2022-07-29T10:16:22.207Z,8050.00
2022-07-29T10:17:22.191Z,7519.00
2022-07-29T10:18:22.161Z,7383.00
2022-07-29T10:19:22.109Z,8170.00
2022-07-29T10:20:22.080Z,8082.00
2022-07-29T10:21:35.298Z,8667.00
2022-07-29T10:22:43.587Z,8049.00
2022-07-29T10:23:22.077Z,8195.00
2022-07-29T10:24:22.040Z,8197.00
2022-07-29T10:25:22.038Z,8165.00
2022-07-29T10:26:22.020Z,8198.00
2022-07-29T10:27:22.015Z,8109.00
2022-07-29T10:28:22.016Z,8221.00
2022-07-29T10:29:21.973Z,8071.00
2022-07-29T10:30:21.984Z,8717.00
2022-07-29T10:31:22.034Z,8147.00
2022-07-29T10:32:21.936Z,7854.00
2022-07-29T10:33:22.102Z,8169.00
2022-07-29T10:34:21.943Z,8299.00
2022-07-29T10:35:21.914Z,8279.00
2022-07-29T10:36:21.935Z,8477.00
2022-07-29T10:37:21.866Z,8372.00
2022-07-29T10:38:21.981Z,8787.00
2022-07-29T10:39:22.384Z,7740.00
2022-07-29T10:40:21.925Z,10231.00
2022-07-29T10:41:21.882Z,8258.00
2022-07-29T10:42:33.423Z,7883.00
2022-07-29T10:43:21.819Z,6849.00
2022-07-29T10:44:22.863Z,9528.00
2022-07-29T10:45:21.804Z,8232.00
2022-07-29T10:46:21.866Z,5350.00
2022-07-29T10:47:21.724Z,8370.00
2022-07-29T10:48:23.586Z,8785.00
2022-07-29T10:49:24.901Z,7611.00
2022-07-29T10:50:21.704Z,7955.00
2022-07-29T10:51:21.706Z,6999.00
2022-07-29T10:52:30.109Z,7325.00
2022-07-29T10:53:21.666Z,6434.00
2022-07-29T10:54:21.696Z,7158.00
2022-07-29T10:55:21.636Z,8089.00
2022-07-29T10:56:21.630Z,7171.00
2022-07-29T10:57:21.634Z,7565.00
2022-07-29T10:58:21.614Z,6465.00
2022-07-29T10:59:22.790Z,9692.00
2022-07-29T11:00:21.574Z,9152.00
2022-07-29T11:01:37.396Z,8728.00
2022-07-29T11:02:41.279Z,10234.00
2022-07-29T11:03:21.629Z,10366.00
2022-07-29T11:04:21.550Z,8723.00
2022-07-29T11:05:21.761Z,9066.00
2022-07-29T11:06:26.301Z,8275.00
2022-07-29T11:07:21.470Z,8965.00
2022-07-29T11:08:26.115Z,8982.00
2022-07-29T11:09:27.354Z,9635.00
2022-07-29T11:10:21.447Z,9874.00
2022-07-29T11:11:22.018Z,8786.00
2022-07-29T11:12:21.409Z,9626.00
2022-07-29T11:13:21.389Z,9504.00
2022-07-29T11:14:24.930Z,9277.00
2022-07-29T11:15:21.409Z,10380.00
2022-07-29T11:16:21.391Z,9178.00
2022-07-29T11:17:21.409Z,6402.00
2022-07-29T11:18:21.388Z,14856.00
2022-07-29T11:19:26.264Z,10906.00
2022-07-29T11:20:21.317Z,9486.00
2022-07-29T11:21:23.360Z,9739.00
2022-07-29T11:22:21.347Z,11439.00
2022-07-29T11:23:21.744Z,10011.00
2022-07-29T11:24:29.277Z,10421.00
2022-07-29T11:25:50.571Z,8902.00
2022-07-29T11:26:22.921Z,8515.00
2022-07-29T11:27:21.327Z,13051.00
2022-07-29T11:28:23.161Z,10589.00
2022-07-29T11:29:21.183Z,9905.00
2022-07-29T11:30:21.185Z,9706.00
2022-07-29T11:31:21.196Z,9815.00
2022-07-29T11:32:23.532Z,9528.00
2022-07-29T11:46:32.148Z,9907.00
2022-07-29T11:47:39.385Z,9734.00
2022-07-29T11:48:33.124Z,9059.00
2022-07-29T11:49:33.345Z,10833.00
2022-07-29T11:50:33.070Z,11413.00
2022-07-29T11:51:33.294Z,10517.00
2022-07-29T11:52:33.054Z,7324.00
2022-07-29T11:53:33.430Z,12886.00
2022-07-29T11:54:33.052Z,12288.00
2022-07-29T12:07:02.302Z,13140.00
2022-07-29T12:07:15.630Z,11347.00
2022-07-29T12:08:14.879Z,12319.00
2022-07-29T12:09:14.740Z,12336.00
2022-07-29T12:10:19.860Z,12333.00
2022-07-29T12:11:12.773Z,12421.00
2022-07-29T12:12:12.763Z,12312.00
2022-07-29T12:13:12.706Z,12365.00
2022-07-29T12:14:12.705Z,12321.00
2022-07-29T12:15:12.679Z,12258.00
2022-07-29T12:16:14.565Z,12219.00
2022-07-29T12:17:12.634Z,12221.00
2022-07-29T12:18:12.723Z,12384.00
2022-07-29T12:19:12.635Z,12481.00
2022-07-29T12:20:12.673Z,12453.00
2022-07-29T12:21:12.667Z,12118.00
2022-07-29T12:22:12.601Z,12000.00
2022-07-29T12:23:12.604Z,11617.00
2022-07-29T12:24:12.620Z,11381.00
2022-07-29T12:26:21.793Z,11392.00
2022-07-29T12:27:12.514Z,11224.00
2022-07-29T12:28:14.251Z,10987.00
2022-07-29T12:29:15.534Z,10900.00
2022-07-29T12:30:12.537Z,10650.00
2022-07-29T12:31:12.517Z,10533.00
2022-07-29T12:32:14.896Z,10298.00
2022-07-29T12:33:12.441Z,10199.00
2022-07-29T12:34:12.453Z,10150.00
2022-07-29T12:35:12.408Z,10066.00
2022-07-29T12:36:17.565Z,10175.00
2022-07-29T12:37:12.389Z,10144.00
2022-07-29T12:38:12.395Z,10096.00
2022-07-29T12:39:12.377Z,10282.00
2022-07-29T12:40:12.364Z,10487.00
2022-07-29T12:41:12.369Z,10267.00
2022-07-29T12:42:13.966Z,10342.00
2022-07-29T12:43:12.306Z,10942.00
2022-07-29T12:44:12.306Z,10719.00
2022-07-29T12:45:12.303Z,10553.00
2022-07-29T12:46:12.326Z,10586.00
2022-07-29T12:47:12.250Z,10523.00
2022-07-29T12:48:12.307Z,10251.00
2022-07-29T12:49:12.334Z,10115.00
2022-07-29T12:50:12.242Z,9825.00